sensor_id;sensor_type;location;lat;lon;timestamp;P1;durP1;ratioP1;P2;durP2;ratioP2
26474;SDS011;14161;52.270;10.334;2023-02-03T04:02:43;8.57;;;6.82;;
26474;SDS011;14161;52.270;10.334;2023-02-03T04:05:10;12.88;;;6.80;;
26474;SDS011;14161;52.270;10.334;2023-02-03T04:07:37;11.07;;;7.60;;
26474;SDS011;14161;52.270;10.334;2023-02-03T04:10:10;13.82;;;7.93;;
26474;SDS011;14161;52.270;10.334;2023-02-03T04:12:43;9.90;;;6.82;;
26474;SDS011;14161;52.270;10.334;2023-02-03T04:15:08;12.45;;;7.80;;
26474;SDS011;14161;52.270;10.334;2023-02-03T04:17:33;12.10;;;7.13;;
26474;SDS011;14161;52.270;10.334;2023-02-03T04:20:01;8.60;;;6.60;;
26474;SDS011;14161;52.270;10.334;2023-02-03T04:22:27;9.48;;;6.53;;
26474;SDS011;14161;52.270;10.334;2023-02-03T04:24:53;10.68;;;6.55;;
26474;SDS011;14161;52.270;10.334;2023-02-03T04:27:19;9.50;;;6.38;;
26474;SDS011;14161;52.270;10.334;2023-02-03T04:29:44;13.30;;;6.88;;
26474;SDS011;14161;52.270;10.334;2023-02-03T04:32:11;10.95;;;6.95;;
26474;SDS011;14161;52.270;10.334;2023-02-03T04:34:37;10.90;;;6.40;;
26474;SDS011;14161;52.270;10.334;2023-02-03T04:37:02;9.45;;;6.50;;
26474;SDS011;14161;52.270;10.334;2023-02-03T04:39:27;13.00;;;7.05;;
26474;SDS011;14161;52.270;10.334;2023-02-03T04:41:53;16.48;;;7.47;;
26474;SDS011;14161;52.270;10.334;2023-02-03T04:44:18;10.25;;;6.57;;
26474;SDS011;14161;52.270;10.334;2023-02-03T04:46:44;10.52;;;5.60;;
26474;SDS011;14161;52.270;10.334;2023-02-03T04:49:09;9.30;;;6.10;;
26474;SDS011;14161;52.270;10.334;2023-02-03T04:51:36;12.07;;;6.68;;
26474;SDS011;14161;52.270;10.334;2023-02-03T04:54:01;9.57;;;6.03;;
26474;SDS011;14161;52.270;10.334;2023-02-03T04:56:26;8.77;;;5.88;;
26474;SDS011;14161;52.270;10.334;2023-02-03T04:58:52;8.38;;;5.95;;
26474;SDS011;14161;52.270;10.334;2023-02-03T05:01:17;13.32;;;6.05;;
26474;SDS011;14161;52.270;10.334;2023-02-03T05:03:43;9.75;;;6.30;;
26474;SDS011;14161;52.270;10.334;2023-02-03T05:06:08;14.07;;;6.50;;
26474;SDS011;14161;52.270;10.334;2023-02-03T05:08:34;10.23;;;6.00;;
26474;SDS011;14161;52.270;10.334;2023-02-03T05:10:59;9.68;;;5.40;;
26474;SDS011;14161;52.270;10.334;2023-02-03T05:13:25;9.82;;;6.22;;
26474;SDS011;14161;52.270;10.334;2023-02-03T05:15:50;11.13;;;5.95;;
26474;SDS011;14161;52.270;10.334;2023-02-03T05:18:16;10.50;;;6.28;;
26474;SDS011;14161;52.270;10.334;2023-02-03T05:20:41;10.73;;;5.70;;
26474;SDS011;14161;52.270;10.334;2023-02-03T05:23:07;11.57;;;6.53;;
26474;SDS011;14161;52.270;10.334;2023-02-03T05:25:32;11.25;;;5.72;;
26474;SDS011;14161;52.270;10.334;2023-02-03T05:27:58;9.18;;;6.22;;
26474;SDS011;14161;52.270;10.334;2023-02-03T05:30:23;10.43;;;6.50;;
26474;SDS011;14161;52.270;10.334;2023-02-03T05:32:49;8.18;;;5.60;;
26474;SDS011;14161;52.270;10.334;2023-02-03T05:35:14;8.82;;;5.82;;
26474;SDS011;14161;52.270;10.334;2023-02-03T05:37:41;9.15;;;5.50;;
26474;SDS011;14161;52.270;10.334;2023-02-03T05:40:08;10.18;;;5.97;;
26474;SDS011;14161;52.270;10.334;2023-02-03T05:42:52;7.68;;;4.97;;
26474;SDS011;14161;52.270;10.334;2023-02-03T05:45:18;10.73;;;4.78;;
26474;SDS011;14161;52.270;10.334;2023-02-03T05:47:43;10.07;;;5.90;;
26474;SDS011;14161;52.270;10.334;2023-02-03T05:50:09;9.73;;;5.43;;
26474;SDS011;14161;52.270;10.334;2023-02-03T05:52:34;9.70;;;5.57;;
26474;SDS011;14161;52.270;10.334;2023-02-03T05:55:00;15.95;;;6.13;;
26474;SDS011;14161;52.270;10.334;2023-02-03T05:57:25;10.35;;;5.82;;
26474;SDS011;14161;52.270;10.334;2023-02-03T05:59:51;18.13;;;6.70;;
26474;SDS011;14161;52.270;10.334;2023-02-03T06:02:16;11.65;;;5.07;;
26474;SDS011;14161;52.270;10.334;2023-02-03T06:04:42;8.73;;;5.68;;
26474;SDS011;14161;52.270;10.334;2023-02-03T06:07:07;11.02;;;5.68;;
26474;SDS011;14161;52.270;10.334;2023-02-03T06:09:33;10.95;;;5.15;;
26474;SDS011;14161;52.270;10.334;2023-02-03T06:11:58;11.98;;;5.45;;
26474;SDS011;14161;52.270;10.334;2023-02-03T06:14:24;12.80;;;5.32;;
26474;SDS011;14161;52.270;10.334;2023-02-03T06:16:49;10.13;;;4.88;;
26474;SDS011;14161;52.270;10.334;2023-02-03T06:19:14;14.68;;;5.57;;
26474;SDS011;14161;52.270;10.334;2023-02-03T06:21:40;9.88;;;4.78;;
26474;SDS011;14161;52.270;10.334;2023-02-03T06:24:06;11.00;;;5.18;;
26474;SDS011;14161;52.270;10.334;2023-02-03T06:26:31;10.57;;;4.65;;
26474;SDS011;14161;52.270;10.334;2023-02-03T06:28:57;8.05;;;4.90;;
26474;SDS011;14161;52.270;10.334;2023-02-03T06:31:22;11.52;;;4.65;;
26474;SDS011;14161;52.270;10.334;2023-02-03T06:33:47;12.80;;;4.75;;
26474;SDS011;14161;52.270;10.334;2023-02-03T06:36:13;10.43;;;4.13;;
26474;SDS011;14161;52.270;10.334;2023-02-03T06:38:38;10.55;;;4.75;;
26474;SDS011;14161;52.270;10.334;2023-02-03T06:41:04;9.27;;;4.32;;
26474;SDS011;14161;52.270;10.334;2023-02-03T06:43:29;13.77;;;4.50;;
26474;SDS011;14161;52.270;10.334;2023-02-03T06:45:55;11.55;;;4.95;;
26474;SDS011;14161;52.270;10.334;2023-02-03T06:48:20;8.48;;;4.45;;
26474;SDS011;14161;52.270;10.334;2023-02-03T06:50:46;11.68;;;4.47;;
26474;SDS011;14161;52.270;10.334;2023-02-03T06:53:11;10.25;;;4.78;;
26474;SDS011;14161;52.270;10.334;2023-02-03T06:55:37;12.93;;;5.10;;
26474;SDS011;14161;52.270;10.334;2023-02-03T06:58:02;10.82;;;5.57;;
26474;SDS011;14161;52.270;10.334;2023-02-03T16:02:44;15.50;;;3.40;;
26474;SDS011;14161;52.270;10.334;2023-02-03T16:05:23;26.58;;;10.60;;
26474;SDS011;14161;52.270;10.334;2023-02-03T16:07:51;17.30;;;4.13;;
26474;SDS011;14161;52.270;10.334;2023-02-03T16:10:29;13.27;;;3.45;;
26474;SDS011;14161;52.270;10.334;2023-02-03T16:15:55;11.88;;;2.38;;
26474;SDS011;14161;52.270;10.334;2023-02-03T16:18:22;12.75;;;2.92;;
26474;SDS011;14161;52.270;10.334;2023-02-03T16:20:48;13.77;;;3.55;;
26474;SDS011;14161;52.270;10.334;2023-02-03T16:25:59;11.25;;;3.10;;
26474;SDS011;14161;52.270;10.334;2023-02-03T16:28:27;18.65;;;3.85;;
26474;SDS011;14161;52.270;10.334;2023-02-03T16:31:18;14.23;;;3.45;;
26474;SDS011;14161;52.270;10.334;2023-02-03T16:34:11;14.98;;;3.33;;
26474;SDS011;14161;52.270;10.334;2023-02-03T16:36:57;19.02;;;4.55;;
26474;SDS011;14161;52.270;10.334;2023-02-03T16:39:41;21.38;;;4.55;;
26474;SDS011;14161;52.270;10.334;2023-02-03T16:42:25;12.40;;;3.70;;
26474;SDS011;14161;52.270;10.334;2023-02-03T16:45:13;20.80;;;4.50;;
26474;SDS011;14161;52.270;10.334;2023-02-03T16:47:59;19.02;;;4.35;;
26474;SDS011;14161;52.270;10.334;2023-02-03T16:50:43;17.85;;;3.17;;
26474;SDS011;14161;52.270;10.334;2023-02-03T16:53:25;17.27;;;3.55;;
26474;SDS011;14161;52.270;10.334;2023-02-03T16:55:53;18.85;;;4.18;;
26474;SDS011;14161;52.270;10.334;2023-02-03T16:58:19;15.65;;;4.65;;
26474;SDS011;14161;52.270;10.334;2023-02-03T17:00:45;20.33;;;4.55;;
26474;SDS011;14161;52.270;10.334;2023-02-03T17:03:13;16.83;;;3.85;;
26474;SDS011;14161;52.270;10.334;2023-02-03T17:05:48;24.20;;;4.50;;
26474;SDS011;14161;52.270;10.334;2023-02-03T17:08:15;20.25;;;4.53;;
26474;SDS011;14161;52.270;10.334;2023-02-03T17:10:42;18.40;;;3.97;;
26474;SDS011;14161;52.270;10.334;2023-02-03T17:13:09;20.27;;;4.05;;
26474;SDS011;14161;52.270;10.334;2023-02-03T17:15:41;21.35;;;4.57;;
26474;SDS011;14161;52.270;10.334;2023-02-03T17:18:11;17.67;;;4.65;;
26474;SDS011;14161;52.270;10.334;2023-02-03T17:20:39;16.88;;;3.55;;
26474;SDS011;14161;52.270;10.334;2023-02-03T17:23:06;16.27;;;3.35;;
26474;SDS011;14161;52.270;10.334;2023-02-03T17:25:32;16.02;;;3.30;;
26474;SDS011;14161;52.270;10.334;2023-02-03T17:28:01;18.25;;;3.80;;
26474;SDS011;14161;52.270;10.334;2023-02-03T17:30:27;15.20;;;4.00;;
26474;SDS011;14161;52.270;10.334;2023-02-03T17:32:53;25.33;;;4.50;;
26474;SDS011;14161;52.270;10.334;2023-02-03T17:35:19;18.83;;;4.22;;
26474;SDS011;14161;52.270;10.334;2023-02-03T17:37:44;18.85;;;4.53;;
26474;SDS011;14161;52.270;10.334;2023-02-03T17:40:12;16.98;;;3.72;;
26474;SDS011;14161;52.270;10.334;2023-02-03T17:42:44;23.25;;;5.68;;
26474;SDS011;14161;52.270;10.334;2023-02-03T17:45:10;31.80;;;5.57;;
26474;SDS011;14161;52.270;10.334;2023-02-03T17:47:35;22.02;;;4.47;;
26474;SDS011;14161;52.270;10.334;2023-02-03T17:50:01;28.30;;;5.32;;
26474;SDS011;14161;52.270;10.334;2023-02-03T17:52:26;27.60;;;5.15;;
26474;SDS011;14161;52.270;10.334;2023-02-03T17:54:52;21.88;;;5.22;;
26474;SDS011;14161;52.270;10.334;2023-02-03T17:57:17;25.83;;;4.25;;
26474;SDS011;14161;52.270;10.334;2023-02-03T17:59:43;25.38;;;4.97;;
26474;SDS011;14161;52.270;10.334;2023-02-03T18:02:09;24.38;;;5.38;;
26474;SDS011;14161;52.270;10.334;2023-02-03T18:04:34;25.88;;;5.15;;
26474;SDS011;14161;52.270;10.334;2023-02-03T18:07:00;17.15;;;3.90;;
26474;SDS011;14161;52.270;10.334;2023-02-03T18:09:25;23.48;;;4.35;;
26474;SDS011;14161;52.270;10.334;2023-02-03T18:11:51;17.77;;;3.95;;
26474;SDS011;14161;52.270;10.334;2023-02-03T18:14:16;21.95;;;5.15;;
26474;SDS011;14161;52.270;10.334;2023-02-03T18:16:42;17.20;;;3.97;;
26474;SDS011;14161;52.270;10.334;2023-02-03T18:19:10;18.95;;;3.83;;
26474;SDS011;14161;52.270;10.334;2023-02-03T18:21:38;20.95;;;4.65;;
26474;SDS011;14161;52.270;10.334;2023-02-03T18:24:08;16.58;;;4.32;;
26474;SDS011;14161;52.270;10.334;2023-02-03T18:26:34;15.77;;;3.50;;
26474;SDS011;14161;52.270;10.334;2023-02-03T18:29:04;17.60;;;4.15;;
26474;SDS011;14161;52.270;10.334;2023-02-03T18:31:30;22.58;;;3.88;;
26474;SDS011;14161;52.270;10.334;2023-02-03T18:33:59;22.63;;;4.10;;
26474;SDS011;14161;52.270;10.334;2023-02-03T18:36:25;25.98;;;5.10;;
26474;SDS011;14161;52.270;10.334;2023-02-03T18:38:51;14.85;;;3.78;;
26474;SDS011;14161;52.270;10.334;2023-02-03T18:41:18;22.73;;;4.05;;
26474;SDS011;14161;52.270;10.334;2023-02-03T18:43:45;15.98;;;3.63;;
26474;SDS011;14161;52.270;10.334;2023-02-03T18:46:23;21.63;;;3.58;;
26474;SDS011;14161;52.270;10.334;2023-02-03T18:48:53;18.98;;;4.93;;
26474;SDS011;14161;52.270;10.334;2023-02-03T18:51:20;20.88;;;5.75;;
26474;SDS011;14161;52.270;10.334;2023-02-03T18:53:47;19.60;;;4.22;;
26474;SDS011;14161;52.270;10.334;2023-02-03T18:56:14;22.48;;;4.40;;
26474;SDS011;14161;52.270;10.334;2023-02-03T18:58:44;23.25;;;4.55;;
26474;SDS011;14161;52.270;10.334;2023-02-03T19:01:20;24.02;;;4.80;;
26474;SDS011;14161;52.270;10.334;2023-02-03T19:03:50;18.67;;;3.70;;
26474;SDS011;14161;52.270;10.334;2023-02-03T19:06:16;21.35;;;4.38;;
26474;SDS011;14161;52.270;10.334;2023-02-03T19:08:42;19.58;;;4.75;;
26474;SDS011;14161;52.270;10.334;2023-02-03T19:11:08;17.50;;;4.80;;
26474;SDS011;14161;52.270;10.334;2023-02-03T19:13:34;15.93;;;3.47;;
26474;SDS011;14161;52.270;10.334;2023-02-03T19:15:59;14.02;;;3.33;;
26474;SDS011;14161;52.270;10.334;2023-02-03T19:18:26;13.63;;;3.47;;
26474;SDS011;14161;52.270;10.334;2023-02-03T19:20:52;16.70;;;4.03;;
26474;SDS011;14161;52.270;10.334;2023-02-03T19:23:17;18.73;;;3.83;;
26474;SDS011;14161;52.270;10.334;2023-02-03T19:25:43;23.65;;;4.65;;
26474;SDS011;14161;52.270;10.334;2023-02-03T19:28:08;22.00;;;4.03;;
26474;SDS011;14161;52.270;10.334;2023-02-03T19:30:34;14.95;;;4.20;;
26474;SDS011;14161;52.270;10.334;2023-02-03T19:33:00;14.15;;;3.53;;
26474;SDS011;14161;52.270;10.334;2023-02-03T19:35:25;19.40;;;4.28;;
26474;SDS011;14161;52.270;10.334;2023-02-03T19:37:51;23.63;;;4.50;;
26474;SDS011;14161;52.270;10.334;2023-02-03T19:40:18;14.38;;;3.88;;
26474;SDS011;14161;52.270;10.334;2023-02-03T19:42:43;24.20;;;3.97;;
26474;SDS011;14161;52.270;10.334;2023-02-03T19:45:09;22.80;;;4.38;;
26474;SDS011;14161;52.270;10.334;2023-02-03T19:47:35;18.20;;;3.78;;
26474;SDS011;14161;52.270;10.334;2023-02-03T19:50:00;22.05;;;4.10;;
26474;SDS011;14161;52.270;10.334;2023-02-03T19:52:25;22.25;;;3.88;;
26474;SDS011;14161;52.270;10.334;2023-02-03T19:54:51;20.10;;;4.40;;
26474;SDS011;14161;52.270;10.334;2023-02-03T19:57:19;19.13;;;4.07;;
26474;SDS011;14161;52.270;10.334;2023-02-03T19:59:44;23.95;;;4.22;;
26474;SDS011;14161;52.270;10.334;2023-02-03T20:02:09;20.50;;;3.85;;
26474;SDS011;14161;52.270;10.334;2023-02-03T20:04:35;14.98;;;4.03;;
26474;SDS011;14161;52.270;10.334;2023-02-03T20:07:01;19.95;;;4.60;;
26474;SDS011;14161;52.270;10.334;2023-02-03T20:09:26;22.40;;;4.05;;
26474;SDS011;14161;52.270;10.334;2023-02-03T20:11:52;18.00;;;4.80;;
26474;SDS011;14161;52.270;10.334;2023-02-03T20:14:17;19.17;;;3.58;;
26474;SDS011;14161;52.270;10.334;2023-02-03T20:16:43;13.68;;;3.55;;
26474;SDS011;14161;52.270;10.334;2023-02-03T20:19:09;21.63;;;3.90;;
26474;SDS011;14161;52.270;10.334;2023-02-03T20:21:35;19.90;;;3.95;;
26474;SDS011;14161;52.270;10.334;2023-02-03T20:24:00;19.95;;;3.72;;
26474;SDS011;14161;52.270;10.334;2023-02-03T20:26:26;18.77;;;3.97;;
26474;SDS011;14161;52.270;10.334;2023-02-03T20:28:51;19.95;;;4.05;;
26474;SDS011;14161;52.270;10.334;2023-02-03T20:31:16;21.45;;;4.22;;
26474;SDS011;14161;52.270;10.334;2023-02-03T20:33:42;21.50;;;4.63;;
26474;SDS011;14161;52.270;10.334;2023-02-03T20:36:07;24.00;;;5.07;;
26474;SDS011;14161;52.270;10.334;2023-02-03T20:38:33;12.60;;;2.95;;
26474;SDS011;14161;52.270;10.334;2023-02-03T20:40:58;30.80;;;5.60;;
26474;SDS011;14161;52.270;10.334;2023-02-03T20:43:24;21.05;;;4.43;;
26474;SDS011;14161;52.270;10.334;2023-02-03T20:45:51;17.90;;;4.15;;
26474;SDS011;14161;52.270;10.334;2023-02-03T20:48:18;17.38;;;3.92;;
26474;SDS011;14161;52.270;10.334;2023-02-03T20:50:46;22.67;;;4.05;;
26474;SDS011;14161;52.270;10.334;2023-02-03T20:53:13;20.27;;;4.43;;
26474;SDS011;14161;52.270;10.334;2023-02-03T20:55:40;22.42;;;4.13;;
26474;SDS011;14161;52.270;10.334;2023-02-03T20:58:11;22.08;;;3.53;;
26474;SDS011;14161;52.270;10.334;2023-02-03T21:00:57;19.55;;;4.03;;
26474;SDS011;14161;52.270;10.334;2023-02-03T21:03:23;18.98;;;3.45;;
